sensor_id;sensor_type;location;lat;lon;timestamp;pressure;altitude;pressure_sealevel;temperature;humidity
57250;BME280;43102;52.014;-0.680;2022-12-31T00:00:00;98866;;;10.28;81.54
57250;BME280;43102;52.014;-0.680;2022-12-31T00:01:00;98866;;;10.28;81.54
57250;BME280;43102;52.014;-0.680;2022-12-31T00:02:00;98866;;;10.28;81.54
57250;BME280;43102;52.014;-0.680;2022-12-31T00:03:00;98855;;;10.21;81.50
57250;BME280;43102;52.014;-0.680;2022-12-31T00:04:00;98855;;;10.21;81.50
57250;BME280;43102;52.014;-0.680;2022-12-31T00:05:00;98855;;;10.21;81.50
57250;BME280;43102;52.014;-0.680;2022-12-31T00:06:00;98855;;;10.21;81.50
57250;BME280;43102;52.014;-0.680;2022-12-31T00:07:00;98855;;;10.21;81.50
57250;BME280;43102;52.014;-0.680;2022-12-31T00:08:00;98852;;;10.17;81.68
57250;BME280;43102;52.014;-0.680;2022-12-31T00:09:02;98852;;;10.17;81.68
57250;BME280;43102;52.014;-0.680;2022-12-31T00:10:00;98852;;;10.17;81.68
57250;BME280;43102;52.014;-0.680;2022-12-31T00:11:00;98852;;;10.17;81.68
57250;BME280;43102;52.014;-0.680;2022-12-31T00:12:00;98852;;;10.17;81.68
57250;BME280;43102;52.014;-0.680;2022-12-31T00:13:00;98868;;;10.15;81.78
57250;BME280;43102;52.014;-0.680;2022-12-31T00:14:00;98868;;;10.15;81.78
57250;BME280;43102;52.014;-0.680;2022-12-31T00:15:00;98868;;;10.15;81.78
57250;BME280;43102;52.014;-0.680;2022-12-31T00:16:17;98868;;;10.15;81.78
57250;BME280;43102;52.014;-0.680;2022-12-31T00:17:00;98868;;;10.15;81.78
57250;BME280;43102;52.014;-0.680;2022-12-31T00:18:00;98874;;;10.17;81.67
57250;BME280;43102;52.014;-0.680;2022-12-31T00:19:00;98874;;;10.17;81.67
57250;BME280;43102;52.014;-0.680;2022-12-31T00:20:00;98874;;;10.17;81.67
57250;BME280;43102;52.014;-0.680;2022-12-31T00:21:03;98874;;;10.17;81.67
57250;BME280;43102;52.014;-0.680;2022-12-31T00:22:00;98874;;;10.17;81.67
57250;BME280;43102;52.014;-0.680;2022-12-31T00:23:00;98871;;;10.17;81.79
57250;BME280;43102;52.014;-0.680;2022-12-31T00:24:00;98871;;;10.17;81.79
57250;BME280;43102;52.014;-0.680;2022-12-31T00:25:00;98871;;;10.17;81.79
57250;BME280;43102;52.014;-0.680;2022-12-31T00:26:02;98871;;;10.17;81.79
57250;BME280;43102;52.014;-0.680;2022-12-31T00:27:00;98871;;;10.17;81.79
57250;BME280;43102;52.014;-0.680;2022-12-31T00:28:00;98847;;;10.14;81.73
57250;BME280;43102;52.014;-0.680;2022-12-31T00:29:00;98847;;;10.14;81.73
57250;BME280;43102;52.014;-0.680;2022-12-31T00:30:00;98847;;;10.14;81.73
57250;BME280;43102;52.014;-0.680;2022-12-31T00:31:04;98847;;;10.14;81.73
57250;BME280;43102;52.014;-0.680;2022-12-31T00:32:00;98847;;;10.14;81.73
57250;BME280;43102;52.014;-0.680;2022-12-31T00:33:00;98844;;;10.10;81.81
57250;BME280;43102;52.014;-0.680;2022-12-31T00:34:00;98844;;;10.10;81.81
57250;BME280;43102;52.014;-0.680;2022-12-31T00:35:00;98844;;;10.10;81.81
57250;BME280;43102;52.014;-0.680;2022-12-31T00:36:04;98844;;;10.10;81.81
57250;BME280;43102;52.014;-0.680;2022-12-31T00:37:00;98844;;;10.10;81.81
57250;BME280;43102;52.014;-0.680;2022-12-31T00:38:00;98845;;;10.08;81.90
57250;BME280;43102;52.014;-0.680;2022-12-31T00:39:00;98845;;;10.08;81.90
57250;BME280;43102;52.014;-0.680;2022-12-31T00:40:00;98845;;;10.08;81.90
57250;BME280;43102;52.014;-0.680;2022-12-31T00:41:00;98845;;;10.08;81.90
57250;BME280;43102;52.014;-0.680;2022-12-31T00:42:00;98845;;;10.08;81.90
57250;BME280;43102;52.014;-0.680;2022-12-31T00:43:00;98857;;;10.09;81.87
57250;BME280;43102;52.014;-0.680;2022-12-31T00:44:00;98857;;;10.09;81.87
57250;BME280;43102;52.014;-0.680;2022-12-31T00:45:00;98857;;;10.09;81.87
57250;BME280;43102;52.014;-0.680;2022-12-31T00:46:00;98857;;;10.09;81.87
57250;BME280;43102;52.014;-0.680;2022-12-31T00:47:00;98857;;;10.09;81.87
57250;BME280;43102;52.014;-0.680;2022-12-31T00:48:00;98856;;;10.08;82.13
57250;BME280;43102;52.014;-0.680;2022-12-31T00:49:00;98856;;;10.08;82.13
57250;BME280;43102;52.014;-0.680;2022-12-31T00:50:00;98856;;;10.08;82.13
57250;BME280;43102;52.014;-0.680;2022-12-31T00:51:00;98856;;;10.08;82.13
57250;BME280;43102;52.014;-0.680;2022-12-31T00:52:00;98856;;;10.08;82.13
57250;BME280;43102;52.014;-0.680;2022-12-31T00:53:00;98855;;;10.14;82.10
57250;BME280;43102;52.014;-0.680;2022-12-31T00:54:00;98855;;;10.14;82.10
57250;BME280;43102;52.014;-0.680;2022-12-31T00:55:00;98855;;;10.14;82.10
57250;BME280;43102;52.014;-0.680;2022-12-31T00:56:00;98855;;;10.14;82.10
57250;BME280;43102;52.014;-0.680;2022-12-31T00:57:00;98855;;;10.14;82.10
57250;BME280;43102;52.014;-0.680;2022-12-31T00:58:00;98849;;;10.15;82.17
57250;BME280;43102;52.014;-0.680;2022-12-31T00:59:00;98849;;;10.15;82.17
57250;BME280;43102;52.014;-0.680;2022-12-31T01:00:00;98849;;;10.15;82.17
57250;BME280;43102;52.014;-0.680;2022-12-31T01:01:16;98849;;;10.15;82.17
57250;BME280;43102;52.014;-0.680;2022-12-31T01:02:00;98849;;;10.15;82.17
57250;BME280;43102;52.014;-0.680;2022-12-31T01:03:00;98848;;;10.18;82.39
57250;BME280;43102;52.014;-0.680;2022-12-31T01:04:01;98848;;;10.18;82.39
57250;BME280;43102;52.014;-0.680;2022-12-31T01:05:00;98848;;;10.18;82.39
57250;BME280;43102;52.014;-0.680;2022-12-31T01:06:00;98848;;;10.18;82.39
57250;BME280;43102;52.014;-0.680;2022-12-31T01:07:00;98848;;;10.18;82.39
57250;BME280;43102;52.014;-0.680;2022-12-31T01:08:00;98838;;;10.20;82.38
57250;BME280;43102;52.014;-0.680;2022-12-31T01:09:00;98838;;;10.20;82.38
57250;BME280;43102;52.014;-0.680;2022-12-31T01:10:00;98838;;;10.20;82.38
57250;BME280;43102;52.014;-0.680;2022-12-31T01:11:00;98838;;;10.20;82.38
57250;BME280;43102;52.014;-0.680;2022-12-31T01:12:00;98838;;;10.20;82.38
57250;BME280;43102;52.014;-0.680;2022-12-31T01:13:00;98822;;;10.21;82.71
57250;BME280;43102;52.014;-0.680;2022-12-31T01:15:00;98822;;;10.21;82.71
57250;BME280;43102;52.014;-0.680;2022-12-31T01:16:15;98822;;;10.21;82.71
57250;BME280;43102;52.014;-0.680;2022-12-31T01:17:00;98822;;;10.21;82.71
57250;BME280;43102;52.014;-0.680;2022-12-31T01:18:00;98831;;;10.27;82.69
57250;BME280;43102;52.014;-0.680;2022-12-31T01:19:02;98831;;;10.27;82.69
57250;BME280;43102;52.014;-0.680;2022-12-31T01:20:00;98831;;;10.27;82.69
57250;BME280;43102;52.014;-0.680;2022-12-31T01:21:00;98831;;;10.27;82.69
57250;BME280;43102;52.014;-0.680;2022-12-31T01:22:00;98831;;;10.27;82.69
57250;BME280;43102;52.014;-0.680;2022-12-31T01:23:00;98833;;;10.31;82.92
57250;BME280;43102;52.014;-0.680;2022-12-31T01:24:00;98833;;;10.31;82.92
57250;BME280;43102;52.014;-0.680;2022-12-31T01:25:00;98833;;;10.31;82.92
57250;BME280;43102;52.014;-0.680;2022-12-31T01:26:00;98833;;;10.31;82.92
57250;BME280;43102;52.014;-0.680;2022-12-31T01:27:00;98833;;;10.31;82.92
57250;BME280;43102;52.014;-0.680;2022-12-31T01:28:00;98826;;;10.36;83.13
57250;BME280;43102;52.014;-0.680;2022-12-31T01:29:00;98826;;;10.36;83.13
57250;BME280;43102;52.014;-0.680;2022-12-31T01:30:00;98826;;;10.36;83.13
57250;BME280;43102;52.014;-0.680;2022-12-31T01:31:04;98826;;;10.36;83.13
57250;BME280;43102;52.014;-0.680;2022-12-31T01:32:00;98826;;;10.36;83.13
57250;BME280;43102;52.014;-0.680;2022-12-31T01:33:00;98812;;;10.41;83.69
57250;BME280;43102;52.014;-0.680;2022-12-31T01:34:00;98812;;;10.41;83.69
57250;BME280;43102;52.014;-0.680;2022-12-31T01:35:00;98812;;;10.41;83.69
57250;BME280;43102;52.014;-0.680;2022-12-31T01:36:00;98812;;;10.41;83.69
57250;BME280;43102;52.014;-0.680;2022-12-31T01:37:00;98812;;;10.41;83.69
57250;BME280;43102;52.014;-0.680;2022-12-31T01:38:00;98811;;;10.48;83.71
57250;BME280;43102;52.014;-0.680;2022-12-31T01:39:00;98811;;;10.48;83.71
57250;BME280;43102;52.014;-0.680;2022-12-31T01:40:00;98811;;;10.48;83.71
57250;BME280;43102;52.014;-0.680;2022-12-31T01:41:00;98811;;;10.48;83.71
57250;BME280;43102;52.014;-0.680;2022-12-31T01:42:00;98811;;;10.48;83.71
57250;BME280;43102;52.014;-0.680;2022-12-31T01:43:00;98808;;;10.55;83.94
57250;BME280;43102;52.014;-0.680;2022-12-31T01:45:00;98808;;;10.55;83.94
57250;BME280;43102;52.014;-0.680;2022-12-31T01:46:00;98808;;;10.55;83.94
57250;BME280;43102;52.014;-0.680;2022-12-31T01:47:01;98808;;;10.55;83.94
57250;BME280;43102;52.014;-0.680;2022-12-31T01:48:00;98809;;;10.64;84.02
57250;BME280;43102;52.014;-0.680;2022-12-31T01:49:17;98809;;;10.64;84.02
57250;BME280;43102;52.014;-0.680;2022-12-31T01:50:03;98809;;;10.64;84.02
57250;BME280;43102;52.014;-0.680;2022-12-31T01:51:00;98809;;;10.64;84.02
57250;BME280;43102;52.014;-0.680;2022-12-31T01:52:02;98809;;;10.64;84.02
57250;BME280;43102;52.014;-0.680;2022-12-31T01:53:01;98810;;;10.65;84.62
57250;BME280;43102;52.014;-0.680;2022-12-31T01:54:00;98810;;;10.65;84.62
57250;BME280;43102;52.014;-0.680;2022-12-31T01:55:02;98810;;;10.65;84.62
57250;BME280;43102;52.014;-0.680;2022-12-31T01:56:00;98810;;;10.65;84.62
57250;BME280;43102;52.014;-0.680;2022-12-31T01:57:00;98810;;;10.65;84.62
57250;BME280;43102;52.014;-0.680;2022-12-31T01:58:03;98800;;;10.77;84.14
57250;BME280;43102;52.014;-0.680;2022-12-31T01:59:00;98800;;;10.77;84.14
57250;BME280;43102;52.014;-0.680;2022-12-31T02:00:00;98800;;;10.77;84.14
57250;BME280;43102;52.014;-0.680;2022-12-31T02:01:00;98800;;;10.77;84.14
57250;BME280;43102;52.014;-0.680;2022-12-31T02:02:00;98800;;;10.77;84.14
57250;BME280;43102;52.014;-0.680;2022-12-31T02:03:00;98791;;;10.80;84.18
57250;BME280;43102;52.014;-0.680;2022-12-31T02:04:01;98791;;;10.80;84.18
57250;BME280;43102;52.014;-0.680;2022-12-31T02:05:00;98791;;;10.80;84.18
57250;BME280;43102;52.014;-0.680;2022-12-31T02:06:02;98791;;;10.80;84.18
57250;BME280;43102;52.014;-0.680;2022-12-31T02:07:01;98791;;;10.80;84.18
57250;BME280;43102;52.014;-0.680;2022-12-31T02:08:00;98782;;;10.80;83.81
57250;BME280;43102;52.014;-0.680;2022-12-31T02:09:00;98782;;;10.80;83.81
57250;BME280;43102;52.014;-0.680;2022-12-31T02:10:00;98782;;;10.80;83.81
57250;BME280;43102;52.014;-0.680;2022-12-31T02:11:00;98782;;;10.80;83.81
57250;BME280;43102;52.014;-0.680;2022-12-31T02:12:00;98782;;;10.80;83.81
57250;BME280;43102;52.014;-0.680;2022-12-31T02:13:00;98793;;;10.86;83.69
57250;BME280;43102;52.014;-0.680;2022-12-31T02:14:02;98793;;;10.86;83.69
57250;BME280;43102;52.014;-0.680;2022-12-31T02:15:00;98793;;;10.86;83.69
57250;BME280;43102;52.014;-0.680;2022-12-31T02:16:04;98793;;;10.86;83.69
57250;BME280;43102;52.014;-0.680;2022-12-31T02:18:03;98824;;;10.94;83.43
57250;BME280;43102;52.014;-0.680;2022-12-31T02:19:06;98824;;;10.94;83.43
57250;BME280;43102;52.014;-0.680;2022-12-31T02:23:13;98816;;;10.98;83.35
57250;BME280;43102;52.014;-0.680;2022-12-31T02:27:01;98816;;;10.98;83.35
57250;BME280;43102;52.014;-0.680;2022-12-31T02:30:04;98822;;;10.97;83.42
57250;BME280;43102;52.014;-0.680;2022-12-31T02:31:02;98822;;;10.97;83.42
57250;BME280;43102;52.014;-0.680;2022-12-31T02:33:04;98814;;;11.01;83.20
57250;BME280;43102;52.014;-0.680;2022-12-31T02:34:01;98814;;;11.01;83.20
57250;BME280;43102;52.014;-0.680;2022-12-31T02:35:02;98814;;;11.01;83.20
57250;BME280;43102;52.014;-0.680;2022-12-31T02:36:01;98814;;;11.01;83.20
57250;BME280;43102;52.014;-0.680;2022-12-31T02:37:00;98814;;;11.01;83.20
57250;BME280;43102;52.014;-0.680;2022-12-31T02:38:01;98820;;;11.02;83.07
57250;BME280;43102;52.014;-0.680;2022-12-31T02:39:00;98820;;;11.02;83.07
57250;BME280;43102;52.014;-0.680;2022-12-31T02:40:00;98820;;;11.02;83.07
57250;BME280;43102;52.014;-0.680;2022-12-31T02:41:00;98820;;;11.02;83.07
57250;BME280;43102;52.014;-0.680;2022-12-31T02:42:00;98820;;;11.02;83.07
57250;BME280;43102;52.014;-0.680;2022-12-31T02:43:00;98822;;;11.01;83.12
57250;BME280;43102;52.014;-0.680;2022-12-31T02:44:00;98822;;;11.01;83.12
57250;BME280;43102;52.014;-0.680;2022-12-31T02:45:00;98822;;;11.01;83.12
57250;BME280;43102;52.014;-0.680;2022-12-31T02:46:06;98822;;;11.01;83.12
57250;BME280;43102;52.014;-0.680;2022-12-31T02:48:04;98825;;;10.92;83.79
57250;BME280;43102;52.014;-0.680;2022-12-31T02:49:18;98825;;;10.92;83.79
57250;BME280;43102;52.014;-0.680;2022-12-31T02:51:04;98825;;;10.92;83.79
57250;BME280;43102;52.014;-0.680;2022-12-31T02:52:05;98825;;;10.92;83.79
57250;BME280;43102;52.014;-0.680;2022-12-31T02:56:02;98828;;;10.94;83.90
57250;BME280;43102;52.014;-0.680;2022-12-31T02:59:02;98821;;;10.85;84.31
57250;BME280;43102;52.014;-0.680;2022-12-31T03:00:00;98821;;;10.85;84.31
57250;BME280;43102;52.014;-0.680;2022-12-31T03:01:00;98821;;;10.85;84.31
57250;BME280;43102;52.014;-0.680;2022-12-31T03:02:01;98821;;;10.85;84.31
57250;BME280;43102;52.014;-0.680;2022-12-31T03:03:00;98826;;;10.81;84.87
57250;BME280;43102;52.014;-0.680;2022-12-31T03:04:00;98826;;;10.81;84.87
57250;BME280;43102;52.014;-0.680;2022-12-31T03:05:00;98826;;;10.81;84.87
57250;BME280;43102;52.014;-0.680;2022-12-31T03:06:00;98826;;;10.81;84.87
57250;BME280;43102;52.014;-0.680;2022-12-31T03:07:01;98826;;;10.81;84.87
57250;BME280;43102;52.014;-0.680;2022-12-31T03:08:00;98827;;;10.78;85.25
57250;BME280;43102;52.014;-0.680;2022-12-31T03:09:01;98827;;;10.78;85.25
57250;BME280;43102;52.014;-0.680;2022-12-31T03:10:00;98827;;;10.78;85.25
57250;BME280;43102;52.014;-0.680;2022-12-31T03:11:00;98827;;;10.78;85.25
57250;BME280;43102;52.014;-0.680;2022-12-31T03:12:00;98827;;;10.78;85.25
57250;BME280;43102;52.014;-0.680;2022-12-31T03:13:01;98817;;;10.74;85.59
57250;BME280;43102;52.014;-0.680;2022-12-31T03:14:00;98817;;;10.74;85.59
57250;BME280;43102;52.014;-0.680;2022-12-31T03:15:00;98817;;;10.74;85.59
57250;BME280;43102;52.014;-0.680;2022-12-31T03:16:00;98817;;;10.74;85.59
57250;BME280;43102;52.014;-0.680;2022-12-31T03:17:00;98817;;;10.74;85.59
57250;BME280;43102;52.014;-0.680;2022-12-31T03:19:00;98812;;;10.68;86.03
57250;BME280;43102;52.014;-0.680;2022-12-31T03:20:00;98812;;;10.68;86.03
57250;BME280;43102;52.014;-0.680;2022-12-31T03:21:00;98812;;;10.68;86.03
57250;BME280;43102;52.014;-0.680;2022-12-31T03:22:00;98812;;;10.68;86.03
57250;BME280;43102;52.014;-0.680;2022-12-31T03:23:00;98813;;;10.63;86.32
57250;BME280;43102;52.014;-0.680;2022-12-31T03:24:00;98813;;;10.63;86.32
57250;BME280;43102;52.014;-0.680;2022-12-31T03:25:02;98813;;;10.63;86.32
57250;BME280;43102;52.014;-0.680;2022-12-31T03:26:00;98813;;;10.63;86.32
57250;BME280;43102;52.014;-0.680;2022-12-31T03:27:00;98813;;;10.63;86.32
57250;BME280;43102;52.014;-0.680;2022-12-31T03:28:01;98790;;;10.66;86.21
57250;BME280;43102;52.014;-0.680;2022-12-31T03:29:00;98790;;;10.66;86.21
57250;BME280;43102;52.014;-0.680;2022-12-31T03:30:00;98790;;;10.66;86.21
57250;BME280;43102;52.014;-0.680;2022-12-31T03:31:00;98790;;;10.66;86.21
57250;BME280;43102;52.014;-0.680;2022-12-31T03:32:00;98790;;;10.66;86.21
57250;BME280;43102;52.014;-0.680;2022-12-31T03:33:00;98778;;;10.62;86.48
57250;BME280;43102;52.014;-0.680;2022-12-31T03:34:00;98778;;;10.62;86.48
57250;BME280;43102;52.014;-0.680;2022-12-31T03:35:00;98778;;;10.62;86.48
57250;BME280;43102;52.014;-0.680;2022-12-31T03:36:03;98778;;;10.62;86.48
57250;BME280;43102;52.014;-0.680;2022-12-31T03:37:00;98778;;;10.62;86.48
57250;BME280;43102;52.014;-0.680;2022-12-31T03:38:00;98770;;;10.58;86.66
57250;BME280;43102;52.014;-0.680;2022-12-31T03:39:00;98770;;;10.58;86.66
57250;BME280;43102;52.014;-0.680;2022-12-31T03:40:00;98770;;;10.58;86.66
57250;BME280;43102;52.014;-0.680;2022-12-31T03:41:00;98770;;;10.58;86.66
57250;BME280;43102;52.014;-0.680;2022-12-31T03:42:00;98770;;;10.58;86.66
57250;BME280;43102;52.014;-0.680;2022-12-31T03:43:00;98771;;;10.56;86.83
57250;BME280;43102;52.014;-0.680;2022-12-31T03:44:00;98771;;;10.56;86.83
57250;BME280;43102;52.014;-0.680;2022-12-31T03:45:00;98771;;;10.56;86.83
57250;BME280;43102;52.014;-0.680;2022-12-31T03:46:00;98771;;;10.56;86.83
57250;BME280;43102;52.014;-0.680;2022-12-31T03:47:00;98771;;;10.56;86.83
57250;BME280;43102;52.014;-0.680;2022-12-31T03:48:00;98756;;;10.54;87.14
57250;BME280;43102;52.014;-0.680;2022-12-31T03:49:00;98756;;;10.54;87.14
57250;BME280;43102;52.014;-0.680;2022-12-31T03:50:00;98756;;;10.54;87.14
57250;BME280;43102;52.014;-0.680;2022-12-31T03:51:00;98756;;;10.54;87.14
57250;BME280;43102;52.014;-0.680;2022-12-31T03:52:00;98756;;;10.54;87.14
57250;BME280;43102;52.014;-0.680;2022-12-31T03:53:00;98747;;;10.53;87.23
57250;BME280;43102;52.014;-0.680;2022-12-31T03:54:00;98747;;;10.53;87.23
57250;BME280;43102;52.014;-0.680;2022-12-31T03:55:00;98747;;;10.53;87.23
57250;BME280;43102;52.014;-0.680;2022-12-31T03:56:00;98747;;;10.53;87.23
57250;BME280;43102;52.014;-0.680;2022-12-31T03:57:00;98747;;;10.53;87.23
57250;BME280;43102;52.014;-0.680;2022-12-31T03:58:00;98751;;;10.52;87.88
57250;BME280;43102;52.014;-0.680;2022-12-31T03:59:00;98751;;;10.52;87.88
57250;BME280;43102;52.014;-0.680;2022-12-31T04:00:00;98751;;;10.52;87.88
57250;BME280;43102;52.014;-0.680;2022-12-31T04:01:00;98751;;;10.52;87.88
57250;BME280;43102;52.014;-0.680;2022-12-31T04:02:00;98751;;;10.52;87.88
57250;BME280;43102;52.014;-0.680;2022-12-31T04:03:00;98733;;;10.56;87.81
57250;BME280;43102;52.014;-0.680;2022-12-31T04:04:00;98733;;;10.56;87.81
57250;BME280;43102;52.014;-0.680;2022-12-31T04:05:00;98733;;;10.56;87.81
57250;BME280;43102;52.014;-0.680;2022-12-31T04:06:00;98733;;;10.56;87.81
57250;BME280;43102;52.014;-0.680;2022-12-31T04:07:00;98733;;;10.56;87.81
57250;BME280;43102;52.014;-0.680;2022-12-31T04:08:00;98729;;;10.59;87.94
57250;BME280;43102;52.014;-0.680;2022-12-31T04:09:00;98729;;;10.59;87.94
57250;BME280;43102;52.014;-0.680;2022-12-31T04:10:00;98729;;;10.59;87.94
57250;BME280;43102;52.014;-0.680;2022-12-31T04:11:00;98729;;;10.59;87.94
57250;BME280;43102;52.014;-0.680;2022-12-31T04:12:00;98729;;;10.59;87.94
57250;BME280;43102;52.014;-0.680;2022-12-31T04:13:00;98733;;;10.62;88.11
57250;BME280;43102;52.014;-0.680;2022-12-31T04:14:00;98733;;;10.62;88.11
57250;BME280;43102;52.014;-0.680;2022-12-31T04:15:00;98733;;;10.62;88.11
57250;BME280;43102;52.014;-0.680;2022-12-31T04:16:00;98733;;;10.62;88.11
57250;BME280;43102;52.014;-0.680;2022-12-31T04:17:00;98733;;;10.62;88.11
57250;BME280;43102;52.014;-0.680;2022-12-31T04:18:00;98717;;;10.62;88.56
57250;BME280;43102;52.014;-0.680;2022-12-31T04:19:00;98717;;;10.62;88.56
57250;BME280;43102;52.014;-0.680;2022-12-31T04:20:00;98717;;;10.62;88.56
57250;BME280;43102;52.014;-0.680;2022-12-31T04:21:00;98717;;;10.62;88.56
57250;BME280;43102;52.014;-0.680;2022-12-31T04:22:00;98717;;;10.62;88.56
57250;BME280;43102;52.014;-0.680;2022-12-31T04:23:00;98715;;;10.63;88.48
57250;BME280;43102;52.014;-0.680;2022-12-31T04:24:00;98715;;;10.63;88.48
57250;BME280;43102;52.014;-0.680;2022-12-31T04:25:00;98715;;;10.63;88.48
57250;BME280;43102;52.014;-0.680;2022-12-31T04:26:00;98715;;;10.63;88.48
57250;BME280;43102;52.014;-0.680;2022-12-31T04:27:00;98715;;;10.63;88.48
57250;BME280;43102;52.014;-0.680;2022-12-31T04:28:00;98714;;;10.69;88.41
57250;BME280;43102;52.014;-0.680;2022-12-31T04:29:00;98714;;;10.69;88.41
57250;BME280;43102;52.014;-0.680;2022-12-31T04:30:00;98714;;;10.69;88.41
57250;BME280;43102;52.014;-0.680;2022-12-31T04:31:00;98714;;;10.69;88.41
57250;BME280;43102;52.014;-0.680;2022-12-31T04:32:00;98714;;;10.69;88.41
57250;BME280;43102;52.014;-0.680;2022-12-31T04:33:00;98699;;;10.63;89.44
57250;BME280;43102;52.014;-0.680;2022-12-31T04:34:00;98699;;;10.63;89.44
57250;BME280;43102;52.014;-0.680;2022-12-31T04:35:00;98699;;;10.63;89.44
57250;BME280;43102;52.014;-0.680;2022-12-31T04:36:00;98699;;;10.63;89.44
57250;BME280;43102;52.014;-0.680;2022-12-31T04:37:00;98699;;;10.63;89.44
57250;BME280;43102;52.014;-0.680;2022-12-31T04:38:00;98680;;;10.71;89.30
57250;BME280;43102;52.014;-0.680;2022-12-31T04:39:00;98680;;;10.71;89.30
57250;BME280;43102;52.014;-0.680;2022-12-31T04:40:00;98680;;;10.71;89.30
57250;BME280;43102;52.014;-0.680;2022-12-31T04:41:00;98680;;;10.71;89.30
57250;BME280;43102;52.014;-0.680;2022-12-31T04:42:00;98680;;;10.71;89.30
57250;BME280;43102;52.014;-0.680;2022-12-31T04:43:00;98692;;;10.71;89.67
57250;BME280;43102;52.014;-0.680;2022-12-31T04:44:00;98692;;;10.71;89.67
57250;BME280;43102;52.014;-0.680;2022-12-31T04:45:00;98692;;;10.71;89.67
57250;BME280;43102;52.014;-0.680;2022-12-31T04:46:00;98692;;;10.71;89.67
57250;BME280;43102;52.014;-0.680;2022-12-31T04:47:00;98692;;;10.71;89.67
57250;BME280;43102;52.014;-0.680;2022-12-31T04:48:00;98684;;;10.79;89.80
57250;BME280;43102;52.014;-0.680;2022-12-31T04:49:00;98684;;;10.79;89.80
57250;BME280;43102;52.014;-0.680;2022-12-31T04:50:00;98684;;;10.79;89.80
57250;BME280;43102;52.014;-0.680;2022-12-31T04:51:00;98684;;;10.79;89.80
57250;BME280;43102;52.014;-0.680;2022-12-31T04:52:00;98684;;;10.79;89.80
57250;BME280;43102;52.014;-0.680;2022-12-31T04:53:00;98684;;;10.84;89.69
57250;BME280;43102;52.014;-0.680;2022-12-31T04:54:00;98684;;;10.84;89.69
57250;BME280;43102;52.014;-0.680;2022-12-31T04:55:00;98684;;;10.84;89.69
57250;BME280;43102;52.014;-0.680;2022-12-31T04:56:00;98684;;;10.84;89.69
57250;BME280;43102;52.014;-0.680;2022-12-31T04:57:00;98684;;;10.84;89.69
57250;BME280;43102;52.014;-0.680;2022-12-31T04:58:00;98678;;;10.92;89.86
57250;BME280;43102;52.014;-0.680;2022-12-31T04:59:00;98678;;;10.92;89.86
57250;BME280;43102;52.014;-0.680;2022-12-31T05:00:00;98678;;;10.92;89.86
57250;BME280;43102;52.014;-0.680;2022-12-31T05:01:00;98678;;;10.92;89.86
57250;BME280;43102;52.014;-0.680;2022-12-31T05:02:00;98678;;;10.92;89.86
57250;BME280;43102;52.014;-0.680;2022-12-31T05:03:00;98684;;;10.96;90.45
57250;BME280;43102;52.014;-0.680;2022-12-31T05:04:00;98684;;;10.96;90.45
57250;BME280;43102;52.014;-0.680;2022-12-31T05:05:00;98684;;;10.96;90.45
57250;BME280;43102;52.014;-0.680;2022-12-31T05:06:02;98684;;;10.96;90.45
57250;BME280;43102;52.014;-0.680;2022-12-31T05:07:00;98684;;;10.96;90.45
57250;BME280;43102;52.014;-0.680;2022-12-31T05:08:00;98685;;;11.04;90.56
57250;BME280;43102;52.014;-0.680;2022-12-31T05:09:00;98685;;;11.04;90.56
57250;BME280;43102;52.014;-0.680;2022-12-31T05:10:00;98685;;;11.04;90.56
57250;BME280;43102;52.014;-0.680;2022-12-31T05:11:00;98685;;;11.04;90.56
57250;BME280;43102;52.014;-0.680;2022-12-31T05:12:00;98685;;;11.04;90.56
57250;BME280;43102;52.014;-0.680;2022-12-31T05:13:00;98671;;;11.11;90.52
57250;BME280;43102;52.014;-0.680;2022-12-31T05:14:00;98671;;;11.11;90.52
57250;BME280;43102;52.014;-0.680;2022-12-31T05:15:00;98671;;;11.11;90.52
57250;BME280;43102;52.014;-0.680;2022-12-31T05:16:00;98671;;;11.11;90.52
57250;BME280;43102;52.014;-0.680;2022-12-31T05:17:00;98671;;;11.11;90.52
57250;BME280;43102;52.014;-0.680;2022-12-31T05:18:00;98678;;;11.25;90.50
57250;BME280;43102;52.014;-0.680;2022-12-31T05:19:00;98678;;;11.25;90.50
57250;BME280;43102;52.014;-0.680;2022-12-31T05:20:00;98678;;;11.25;90.50
57250;BME280;43102;52.014;-0.680;2022-12-31T05:21:00;98678;;;11.25;90.50
57250;BME280;43102;52.014;-0.680;2022-12-31T05:22:00;98678;;;11.25;90.50
57250;BME280;43102;52.014;-0.680;2022-12-31T05:23:00;98683;;;11.28;91.15
57250;BME280;43102;52.014;-0.680;2022-12-31T05:24:00;98683;;;11.28;91.15
57250;BME280;43102;52.014;-0.680;2022-12-31T05:25:00;98683;;;11.28;91.15
57250;BME280;43102;52.014;-0.680;2022-12-31T05:26:00;98683;;;11.28;91.15
57250;BME280;43102;52.014;-0.680;2022-12-31T05:27:00;98683;;;11.28;91.15
57250;BME280;43102;52.014;-0.680;2022-12-31T05:28:00;98690;;;11.43;91.09
57250;BME280;43102;52.014;-0.680;2022-12-31T05:29:00;98690;;;11.43;91.09
57250;BME280;43102;52.014;-0.680;2022-12-31T05:30:00;98690;;;11.43;91.09
57250;BME280;43102;52.014;-0.680;2022-12-31T05:31:00;98690;;;11.43;91.09
57250;BME280;43102;52.014;-0.680;2022-12-31T05:32:00;98690;;;11.43;91.09
57250;BME280;43102;52.014;-0.680;2022-12-31T05:33:00;98682;;;11.47;91.51
57250;BME280;43102;52.014;-0.680;2022-12-31T05:34:00;98682;;;11.47;91.51
57250;BME280;43102;52.014;-0.680;2022-12-31T05:35:00;98682;;;11.47;91.51
57250;BME280;43102;52.014;-0.680;2022-12-31T05:36:00;98682;;;11.47;91.51
57250;BME280;43102;52.014;-0.680;2022-12-31T05:37:00;98682;;;11.47;91.51
57250;BME280;43102;52.014;-0.680;2022-12-31T05:38:00;98674;;;11.58;91.32
57250;BME280;43102;52.014;-0.680;2022-12-31T05:39:00;98674;;;11.58;91.32
57250;BME280;43102;52.014;-0.680;2022-12-31T05:40:00;98674;;;11.58;91.32
57250;BME280;43102;52.014;-0.680;2022-12-31T05:41:00;98674;;;11.58;91.32
57250;BME280;43102;52.014;-0.680;2022-12-31T05:42:00;98674;;;11.58;91.32
57250;BME280;43102;52.014;-0.680;2022-12-31T05:43:00;98672;;;11.69;91.16
57250;BME280;43102;52.014;-0.680;2022-12-31T05:44:00;98672;;;11.69;91.16
57250;BME280;43102;52.014;-0.680;2022-12-31T05:45:00;98672;;;11.69;91.16
57250;BME280;43102;52.014;-0.680;2022-12-31T05:46:00;98672;;;11.69;91.16